sensor_id;sensor_type;location;lat;lon;timestamp;P1;durP1;ratioP1;P2;durP2;ratioP2
60867;SDS011;46702;48.370;10.794;2023-06-10T00:01:47;10.85;;;7.45;;
60867;SDS011;46702;48.370;10.794;2023-06-10T00:04:13;7.47;;;6.68;;
60867;SDS011;46702;48.370;10.794;2023-06-10T00:06:41;8.50;;;7.43;;
60867;SDS011;46702;48.370;10.794;2023-06-10T00:09:06;8.70;;;7.47;;
60867;SDS011;46702;48.370;10.794;2023-06-10T00:11:35;8.90;;;7.32;;
60867;SDS011;46702;48.370;10.794;2023-06-10T00:14:02;7.97;;;7.18;;
60867;SDS011;46702;48.370;10.794;2023-06-10T00:16:28;8.65;;;7.13;;
60867;SDS011;46702;48.370;10.794;2023-06-10T00:18:54;9.23;;;7.32;;
60867;SDS011;46702;48.370;10.794;2023-06-10T00:21:32;9.65;;;7.03;;
60867;SDS011;46702;48.370;10.794;2023-06-10T00:24:05;10.75;;;8.13;;
60867;SDS011;46702;48.370;10.794;2023-06-10T00:26:32;9.23;;;8.15;;
60867;SDS011;46702;48.370;10.794;2023-06-10T00:28:58;12.80;;;7.28;;
60867;SDS011;46702;48.370;10.794;2023-06-10T00:31:24;8.38;;;7.10;;
60867;SDS011;46702;48.370;10.794;2023-06-10T00:33:51;8.38;;;7.30;;
60867;SDS011;46702;48.370;10.794;2023-06-10T00:36:17;9.07;;;7.47;;
60867;SDS011;46702;48.370;10.794;2023-06-10T00:38:43;9.00;;;7.20;;
60867;SDS011;46702;48.370;10.794;2023-06-10T00:41:08;8.30;;;7.18;;
60867;SDS011;46702;48.370;10.794;2023-06-10T00:43:34;7.70;;;6.90;;
60867;SDS011;46702;48.370;10.794;2023-06-10T00:46:00;10.07;;;7.68;;
60867;SDS011;46702;48.370;10.794;2023-06-10T00:48:26;8.00;;;7.20;;
60867;SDS011;46702;48.370;10.794;2023-06-10T00:50:52;10.88;;;7.80;;
60867;SDS011;46702;48.370;10.794;2023-06-10T00:53:18;10.68;;;6.80;;
60867;SDS011;46702;48.370;10.794;2023-06-10T00:55:45;11.93;;;7.53;;
60867;SDS011;46702;48.370;10.794;2023-06-10T00:58:11;9.88;;;7.45;;
60867;SDS011;46702;48.370;10.794;2023-06-10T01:00:37;8.90;;;7.20;;
60867;SDS011;46702;48.370;10.794;2023-06-10T01:03:03;10.32;;;7.32;;
60867;SDS011;46702;48.370;10.794;2023-06-10T01:05:33;10.93;;;7.47;;
60867;SDS011;46702;48.370;10.794;2023-06-10T01:08:09;10.27;;;7.57;;
60867;SDS011;46702;48.370;10.794;2023-06-10T01:10:50;9.48;;;7.32;;
60867;SDS011;46702;48.370;10.794;2023-06-10T01:13:20;8.30;;;7.50;;
60867;SDS011;46702;48.370;10.794;2023-06-10T01:15:49;9.50;;;7.22;;
60867;SDS011;46702;48.370;10.794;2023-06-10T01:18:16;10.88;;;8.20;;
60867;SDS011;46702;48.370;10.794;2023-06-10T01:20:42;14.68;;;8.23;;
60867;SDS011;46702;48.370;10.794;2023-06-10T01:23:10;9.10;;;8.07;;
60867;SDS011;46702;48.370;10.794;2023-06-10T01:25:37;8.45;;;7.13;;
60867;SDS011;46702;48.370;10.794;2023-06-10T01:30:39;11.35;;;8.35;;
60867;SDS011;46702;48.370;10.794;2023-06-10T01:33:06;9.18;;;6.75;;
60867;SDS011;46702;48.370;10.794;2023-06-10T01:35:34;8.38;;;7.35;;
60867;SDS011;46702;48.370;10.794;2023-06-10T01:38:03;8.32;;;6.93;;
60867;SDS011;46702;48.370;10.794;2023-06-10T01:40:29;11.07;;;7.97;;
60867;SDS011;46702;48.370;10.794;2023-06-10T01:42:55;8.15;;;7.20;;
60867;SDS011;46702;48.370;10.794;2023-06-10T01:45:21;10.05;;;7.57;;
60867;SDS011;46702;48.370;10.794;2023-06-10T01:47:46;8.43;;;7.43;;
60867;SDS011;46702;48.370;10.794;2023-06-10T01:50:12;10.77;;;7.25;;
60867;SDS011;46702;48.370;10.794;2023-06-10T01:52:37;9.07;;;7.00;;
60867;SDS011;46702;48.370;10.794;2023-06-10T01:55:03;10.68;;;7.13;;
60867;SDS011;46702;48.370;10.794;2023-06-10T01:57:29;10.00;;;7.35;;
60867;SDS011;46702;48.370;10.794;2023-06-10T01:59:55;9.32;;;8.00;;
60867;SDS011;46702;48.370;10.794;2023-06-10T02:02:20;8.80;;;7.68;;
60867;SDS011;46702;48.370;10.794;2023-06-10T02:04:47;9.52;;;7.15;;
60867;SDS011;46702;48.370;10.794;2023-06-10T02:07:13;9.70;;;7.28;;
60867;SDS011;46702;48.370;10.794;2023-06-10T02:09:38;8.55;;;7.30;;
60867;SDS011;46702;48.370;10.794;2023-06-10T02:12:04;9.55;;;7.32;;
60867;SDS011;46702;48.370;10.794;2023-06-10T02:14:32;12.50;;;7.45;;
60867;SDS011;46702;48.370;10.794;2023-06-10T02:16:58;9.73;;;7.13;;
60867;SDS011;46702;48.370;10.794;2023-06-10T02:19:23;9.95;;;6.93;;
60867;SDS011;46702;48.370;10.794;2023-06-10T02:21:51;10.30;;;8.02;;
60867;SDS011;46702;48.370;10.794;2023-06-10T02:24:17;7.90;;;6.68;;
60867;SDS011;46702;48.370;10.794;2023-06-10T02:26:43;9.93;;;7.22;;
60867;SDS011;46702;48.370;10.794;2023-06-10T02:29:09;9.35;;;7.35;;
60867;SDS011;46702;48.370;10.794;2023-06-10T02:31:34;8.73;;;6.65;;
60867;SDS011;46702;48.370;10.794;2023-06-10T02:34:00;9.48;;;6.55;;
60867;SDS011;46702;48.370;10.794;2023-06-10T02:36:27;9.07;;;6.82;;
60867;SDS011;46702;48.370;10.794;2023-06-10T02:38:53;9.50;;;7.28;;
60867;SDS011;46702;48.370;10.794;2023-06-10T02:41:18;9.85;;;7.57;;
60867;SDS011;46702;48.370;10.794;2023-06-10T02:43:44;9.07;;;7.47;;
60867;SDS011;46702;48.370;10.794;2023-06-10T02:46:10;10.13;;;7.60;;
60867;SDS011;46702;48.370;10.794;2023-06-10T02:48:41;7.95;;;6.90;;
60867;SDS011;46702;48.370;10.794;2023-06-10T02:51:10;9.48;;;7.20;;
60867;SDS011;46702;48.370;10.794;2023-06-10T02:53:36;9.00;;;6.80;;
60867;SDS011;46702;48.370;10.794;2023-06-10T02:56:02;8.07;;;6.72;;
60867;SDS011;46702;48.370;10.794;2023-06-10T02:58:28;8.73;;;7.50;;
60867;SDS011;46702;48.370;10.794;2023-06-10T03:00:54;8.70;;;6.65;;
60867;SDS011;46702;48.370;10.794;2023-06-10T03:03:19;8.75;;;6.75;;
60867;SDS011;46702;48.370;10.794;2023-06-10T03:05:47;10.57;;;7.05;;
60867;SDS011;46702;48.370;10.794;2023-06-10T03:08:13;10.38;;;7.43;;
60867;SDS011;46702;48.370;10.794;2023-06-10T03:10:38;9.63;;;7.07;;
60867;SDS011;46702;48.370;10.794;2023-06-10T03:13:04;10.18;;;6.78;;
60867;SDS011;46702;48.370;10.794;2023-06-10T03:15:30;8.27;;;6.40;;
60867;SDS011;46702;48.370;10.794;2023-06-10T03:17:58;9.82;;;6.90;;
60867;SDS011;46702;48.370;10.794;2023-06-10T03:20:25;10.10;;;6.70;;
60867;SDS011;46702;48.370;10.794;2023-06-10T03:22:52;9.43;;;7.00;;
60867;SDS011;46702;48.370;10.794;2023-06-10T03:25:18;8.43;;;7.18;;
60867;SDS011;46702;48.370;10.794;2023-06-10T03:27:45;11.15;;;7.50;;
60867;SDS011;46702;48.370;10.794;2023-06-10T03:30:12;10.57;;;7.60;;
60867;SDS011;46702;48.370;10.794;2023-06-10T03:32:38;9.13;;;7.05;;
60867;SDS011;46702;48.370;10.794;2023-06-10T03:35:06;10.57;;;7.43;;
60867;SDS011;46702;48.370;10.794;2023-06-10T03:37:32;10.23;;;7.53;;
60867;SDS011;46702;48.370;10.794;2023-06-10T03:39:58;12.10;;;7.72;;
60867;SDS011;46702;48.370;10.794;2023-06-10T03:42:23;10.18;;;7.45;;
60867;SDS011;46702;48.370;10.794;2023-06-10T03:44:49;11.48;;;7.63;;
60867;SDS011;46702;48.370;10.794;2023-06-10T03:47:15;10.50;;;7.65;;
60867;SDS011;46702;48.370;10.794;2023-06-10T03:49:41;8.50;;;6.80;;
60867;SDS011;46702;48.370;10.794;2023-06-10T03:52:06;7.78;;;6.85;;
60867;SDS011;46702;48.370;10.794;2023-06-10T03:54:32;10.60;;;7.38;;
60867;SDS011;46702;48.370;10.794;2023-06-10T03:57:00;9.68;;;7.40;;
60867;SDS011;46702;48.370;10.794;2023-06-10T03:59:26;8.73;;;6.80;;
60867;SDS011;46702;48.370;10.794;2023-06-10T04:01:51;10.65;;;7.25;;
60867;SDS011;46702;48.370;10.794;2023-06-10T04:04:17;9.00;;;7.38;;
60867;SDS011;46702;48.370;10.794;2023-06-10T04:06:43;10.40;;;7.13;;
60867;SDS011;46702;48.370;10.794;2023-06-10T04:09:09;9.98;;;7.07;;
60867;SDS011;46702;48.370;10.794;2023-06-10T04:11:35;10.23;;;7.45;;
60867;SDS011;46702;48.370;10.794;2023-06-10T04:14:02;11.43;;;7.28;;
60867;SDS011;46702;48.370;10.794;2023-06-10T04:16:27;10.57;;;7.20;;
60867;SDS011;46702;48.370;10.794;2023-06-10T04:18:53;8.60;;;6.82;;
60867;SDS011;46702;48.370;10.794;2023-06-10T04:21:19;10.35;;;7.25;;
60867;SDS011;46702;48.370;10.794;2023-06-10T04:23:46;9.95;;;7.80;;
60867;SDS011;46702;48.370;10.794;2023-06-10T04:26:12;9.63;;;7.82;;
60867;SDS011;46702;48.370;10.794;2023-06-10T04:28:38;9.88;;;6.88;;
60867;SDS011;46702;48.370;10.794;2023-06-10T04:31:04;10.68;;;7.57;;
60867;SDS011;46702;48.370;10.794;2023-06-10T04:33:30;10.43;;;7.20;;
60867;SDS011;46702;48.370;10.794;2023-06-10T04:35:56;10.63;;;7.90;;
60867;SDS011;46702;48.370;10.794;2023-06-10T04:38:22;9.68;;;7.25;;
60867;SDS011;46702;48.370;10.794;2023-06-10T04:40:48;10.68;;;8.10;;
60867;SDS011;46702;48.370;10.794;2023-06-10T04:43:14;9.60;;;7.18;;
60867;SDS011;46702;48.370;10.794;2023-06-10T04:45:39;10.60;;;7.75;;
60867;SDS011;46702;48.370;10.794;2023-06-10T04:48:05;10.68;;;8.25;;
60867;SDS011;46702;48.370;10.794;2023-06-10T04:50:32;10.43;;;8.05;;
60867;SDS011;46702;48.370;10.794;2023-06-10T04:53:01;11.00;;;8.18;;
60867;SDS011;46702;48.370;10.794;2023-06-10T04:55:27;11.52;;;8.25;;
60867;SDS011;46702;48.370;10.794;2023-06-10T04:57:53;10.38;;;8.48;;
60867;SDS011;46702;48.370;10.794;2023-06-10T05:00:18;12.70;;;7.63;;
60867;SDS011;46702;48.370;10.794;2023-06-10T05:02:44;11.70;;;8.10;;
60867;SDS011;46702;48.370;10.794;2023-06-10T05:05:10;9.88;;;7.97;;
60867;SDS011;46702;48.370;10.794;2023-06-10T05:07:36;12.65;;;8.15;;
60867;SDS011;46702;48.370;10.794;2023-06-10T05:10:01;10.73;;;8.38;;
60867;SDS011;46702;48.370;10.794;2023-06-10T05:12:28;10.98;;;8.25;;
60867;SDS011;46702;48.370;10.794;2023-06-10T05:14:53;13.70;;;8.70;;
60867;SDS011;46702;48.370;10.794;2023-06-10T05:17:19;9.70;;;7.60;;
60867;SDS011;46702;48.370;10.794;2023-06-10T05:19:45;11.63;;;8.15;;
60867;SDS011;46702;48.370;10.794;2023-06-10T05:22:12;11.80;;;8.32;;
60867;SDS011;46702;48.370;10.794;2023-06-10T05:24:38;12.27;;;8.45;;
60867;SDS011;46702;48.370;10.794;2023-06-10T05:27:04;12.98;;;8.27;;
60867;SDS011;46702;48.370;10.794;2023-06-10T05:29:31;13.02;;;8.10;;
60867;SDS011;46702;48.370;10.794;2023-06-10T05:31:58;11.35;;;7.90;;
60867;SDS011;46702;48.370;10.794;2023-06-10T05:34:28;11.02;;;7.20;;
60867;SDS011;46702;48.370;10.794;2023-06-10T05:36:56;12.38;;;7.97;;
60867;SDS011;46702;48.370;10.794;2023-06-10T05:39:22;10.57;;;8.02;;
60867;SDS011;46702;48.370;10.794;2023-06-10T05:41:48;11.90;;;8.07;;
60867;SDS011;46702;48.370;10.794;2023-06-10T05:44:16;9.60;;;7.53;;
60867;SDS011;46702;48.370;10.794;2023-06-10T05:46:42;11.57;;;7.63;;
60867;SDS011;46702;48.370;10.794;2023-06-10T05:49:08;8.65;;;7.00;;
60867;SDS011;46702;48.370;10.794;2023-06-10T05:51:33;11.10;;;7.43;;
60867;SDS011;46702;48.370;10.794;2023-06-10T05:53:59;11.00;;;7.45;;
60867;SDS011;46702;48.370;10.794;2023-06-10T05:56:25;10.07;;;7.25;;
60867;SDS011;46702;48.370;10.794;2023-06-10T05:58:51;8.45;;;6.38;;
60867;SDS011;46702;48.370;10.794;2023-06-10T06:01:17;10.27;;;7.15;;
60867;SDS011;46702;48.370;10.794;2023-06-10T06:03:42;9.23;;;6.85;;
60867;SDS011;46702;48.370;10.794;2023-06-10T06:06:08;9.25;;;7.40;;
60867;SDS011;46702;48.370;10.794;2023-06-10T06:08:34;8.75;;;7.00;;
60867;SDS011;46702;48.370;10.794;2023-06-10T06:11:00;8.90;;;6.93;;
60867;SDS011;46702;48.370;10.794;2023-06-10T06:13:25;10.25;;;7.18;;
60867;SDS011;46702;48.370;10.794;2023-06-10T06:15:51;10.30;;;8.02;;
60867;SDS011;46702;48.370;10.794;2023-06-10T06:18:17;10.20;;;7.22;;
60867;SDS011;46702;48.370;10.794;2023-06-10T06:20:43;9.07;;;7.15;;
60867;SDS011;46702;48.370;10.794;2023-06-10T06:23:09;9.20;;;7.28;;
60867;SDS011;46702;48.370;10.794;2023-06-10T06:25:35;9.60;;;7.28;;
60867;SDS011;46702;48.370;10.794;2023-06-10T06:28:04;9.50;;;7.45;;
60867;SDS011;46702;48.370;10.794;2023-06-10T06:30:35;9.07;;;7.05;;
60867;SDS011;46702;48.370;10.794;2023-06-10T06:33:01;9.02;;;7.00;;
60867;SDS011;46702;48.370;10.794;2023-06-10T06:35:27;9.10;;;7.20;;
60867;SDS011;46702;48.370;10.794;2023-06-10T06:37:57;10.25;;;7.75;;
60867;SDS011;46702;48.370;10.794;2023-06-10T06:40:23;9.90;;;7.65;;
60867;SDS011;46702;48.370;10.794;2023-06-10T06:42:49;8.13;;;6.80;;
60867;SDS011;46702;48.370;10.794;2023-06-10T06:45:15;8.82;;;7.25;;
60867;SDS011;46702;48.370;10.794;2023-06-10T06:47:40;9.77;;;7.35;;
60867;SDS011;46702;48.370;10.794;2023-06-10T06:50:06;9.43;;;6.95;;
60867;SDS011;46702;48.370;10.794;2023-06-10T06:52:32;10.00;;;7.30;;
60867;SDS011;46702;48.370;10.794;2023-06-10T06:54:57;10.70;;;6.88;;
60867;SDS011;46702;48.370;10.794;2023-06-10T06:57:23;11.23;;;7.45;;
60867;SDS011;46702;48.370;10.794;2023-06-10T06:59:49;7.63;;;6.65;;
60867;SDS011;46702;48.370;10.794;2023-06-10T07:02:15;7.82;;;6.22;;
60867;SDS011;46702;48.370;10.794;2023-06-10T07:04:40;8.35;;;6.50;;
60867;SDS011;46702;48.370;10.794;2023-06-10T07:07:07;8.88;;;6.18;;
60867;SDS011;46702;48.370;10.794;2023-06-10T07:09:36;8.77;;;6.28;;
60867;SDS011;46702;48.370;10.794;2023-06-10T07:12:02;6.85;;;5.65;;
60867;SDS011;46702;48.370;10.794;2023-06-10T07:14:28;7.75;;;6.10;;
60867;SDS011;46702;48.370;10.794;2023-06-10T07:16:54;6.45;;;5.55;;
60867;SDS011;46702;48.370;10.794;2023-06-10T07:19:20;7.63;;;5.55;;
60867;SDS011;46702;48.370;10.794;2023-06-10T07:21:45;7.78;;;6.03;;
60867;SDS011;46702;48.370;10.794;2023-06-10T07:24:11;7.72;;;6.40;;
60867;SDS011;46702;48.370;10.794;2023-06-10T07:26:37;7.28;;;6.00;;
60867;SDS011;46702;48.370;10.794;2023-06-10T07:29:02;7.40;;;5.53;;
60867;SDS011;46702;48.370;10.794;2023-06-10T07:31:28;9.02;;;6.15;;
60867;SDS011;46702;48.370;10.794;2023-06-10T07:33:54;7.22;;;6.07;;
60867;SDS011;46702;48.370;10.794;2023-06-10T07:36:19;6.95;;;5.97;;
60867;SDS011;46702;48.370;10.794;2023-06-10T07:38:45;8.20;;;5.35;;
60867;SDS011;46702;48.370;10.794;2023-06-10T07:41:11;6.70;;;5.55;;
60867;SDS011;46702;48.370;10.794;2023-06-10T07:43:37;6.25;;;5.65;;
60867;SDS011;46702;48.370;10.794;2023-06-10T07:46:03;6.47;;;5.60;;
60867;SDS011;46702;48.370;10.794;2023-06-10T07:48:30;6.97;;;6.00;;
60867;SDS011;46702;48.370;10.794;2023-06-10T07:50:56;7.47;;;6.22;;
60867;SDS011;46702;48.370;10.794;2023-06-10T07:53:22;8.25;;;6.65;;
60867;SDS011;46702;48.370;10.794;2023-06-10T07:55:48;6.40;;;5.70;;
60867;SDS011;46702;48.370;10.794;2023-06-10T07:58:13;6.15;;;5.45;;
60867;SDS011;46702;48.370;10.794;2023-06-10T08:00:42;6.47;;;5.68;;
60867;SDS011;46702;48.370;10.794;2023-06-10T08:03:08;6.60;;;5.90;;
60867;SDS011;46702;48.370;10.794;2023-06-10T08:05:33;6.63;;;5.72;;
60867;SDS011;46702;48.370;10.794;2023-06-10T08:07:59;12.75;;;6.07;;
60867;SDS011;46702;48.370;10.794;2023-06-10T08:10:25;6.88;;;5.97;;
60867;SDS011;46702;48.370;10.794;2023-06-10T08:12:53;8.10;;;6.10;;
60867;SDS011;46702;48.370;10.794;2023-06-10T08:15:19;6.57;;;5.75;;
60867;SDS011;46702;48.370;10.794;2023-06-10T08:17:45;7.13;;;5.70;;
60867;SDS011;46702;48.370;10.794;2023-06-10T08:20:10;7.93;;;5.70;;
60867;SDS011;46702;48.370;10.794;2023-06-10T08:22:36;5.97;;;5.10;;
60867;SDS011;46702;48.370;10.794;2023-06-10T08:25:01;5.53;;;4.78;;
60867;SDS011;46702;48.370;10.794;2023-06-10T08:27:27;5.97;;;5.13;;
60867;SDS011;46702;48.370;10.794;2023-06-10T08:29:53;6.88;;;5.63;;
60867;SDS011;46702;48.370;10.794;2023-06-10T08:32:19;6.75;;;5.22;;
60867;SDS011;46702;48.370;10.794;2023-06-10T08:34:44;5.70;;;4.88;;
60867;SDS011;46702;48.370;10.794;2023-06-10T08:37:10;12.52;;;6.15;;
60867;SDS011;46702;48.370;10.794;2023-06-10T08:39:36;5.85;;;5.22;;
60867;SDS011;46702;48.370;10.794;2023-06-10T08:44:46;5.35;;;4.18;;
60867;SDS011;46702;48.370;10.794;2023-06-10T08:47:14;5.80;;;5.20;;
60867;SDS011;46702;48.370;10.794;2023-06-10T08:49:46;6.05;;;5.45;;
60867;SDS011;46702;48.370;10.794;2023-06-10T08:52:16;6.10;;;5.50;;
60867;SDS011;46702;48.370;10.794;2023-06-10T08:54:47;6.47;;;5.43;;
60867;SDS011;46702;48.370;10.794;2023-06-10T08:57:17;6.63;;;5.55;;
60867;SDS011;46702;48.370;10.794;2023-06-10T08:59:45;7.00;;;5.85;;
60867;SDS011;46702;48.370;10.794;2023-06-10T09:02:11;7.20;;;5.97;;
60867;SDS011;46702;48.370;10.794;2023-06-10T09:04:41;6.30;;;5.03;;
60867;SDS011;46702;48.370;10.794;2023-06-10T09:07:09;5.85;;;5.22;;
60867;SDS011;46702;48.370;10.794;2023-06-10T09:09:36;6.70;;;6.00;;
60867;SDS011;46702;48.370;10.794;2023-06-10T09:12:02;6.80;;;5.60;;
60867;SDS011;46702;48.370;10.794;2023-06-10T09:14:28;5.93;;;5.32;;
60867;SDS011;46702;48.370;10.794;2023-06-10T09:16:57;6.07;;;5.47;;
60867;SDS011;46702;48.370;10.794;2023-06-10T09:19:23;6.47;;;5.55;;
60867;SDS011;46702;48.370;10.794;2023-06-10T09:22:05;6.38;;;5.30;;
60867;SDS011;46702;48.370;10.794;2023-06-10T09:24:31;5.50;;;5.00;;
60867;SDS011;46702;48.370;10.794;2023-06-10T09:27:04;5.88;;;5.28;;
60867;SDS011;46702;48.370;10.794;2023-06-10T09:29:46;6.32;;;5.15;;
60867;SDS011;46702;48.370;10.794;2023-06-10T09:32:17;8.05;;;5.55;;
60867;SDS011;46702;48.370;10.794;2023-06-10T09:34:43;7.28;;;5.47;;
60867;SDS011;46702;48.370;10.794;2023-06-10T09:37:09;5.60;;;4.72;;
60867;SDS011;46702;48.370;10.794;2023-06-10T09:39:37;6.65;;;5.95;;
60867;SDS011;46702;48.370;10.794;2023-06-10T09:42:10;5.82;;;5.22;;
60867;SDS011;46702;48.370;10.794;2023-06-10T09:44:41;5.95;;;5.35;;
60867;SDS011;46702;48.370;10.794;2023-06-10T09:47:07;6.00;;;5.38;;
60867;SDS011;46702;48.370;10.794;2023-06-10T09:49:33;5.63;;;4.97;;
60867;SDS011;46702;48.370;10.794;2023-06-10T09:52:05;5.38;;;4.88;;
60867;SDS011;46702;48.370;10.794;2023-06-10T09:56:57;5.38;;;4.88;;
60867;SDS011;46702;48.370;10.794;2023-06-10T10:01:55;5.63;;;4.57;;
60867;SDS011;46702;48.370;10.794;2023-06-10T10:04:24;4.65;;;4.25;;
60867;SDS011;46702;48.370;10.794;2023-06-10T10:06:53;5.35;;;4.85;;
60867;SDS011;46702;48.370;10.794;2023-06-10T10:09:19;5.10;;;4.60;;
60867;SDS011;46702;48.370;10.794;2023-06-10T10:11:44;5.70;;;4.72;;
60867;SDS011;46702;48.370;10.794;2023-06-10T10:14:12;5.85;;;4.90;;
60867;SDS011;46702;48.370;10.794;2023-06-10T10:16:41;99.07;;;10.52;;
60867;SDS011;46702;48.370;10.794;2023-06-10T10:19:10;5.03;;;4.53;;
60867;SDS011;46702;48.370;10.794;2023-06-10T10:21:44;5.28;;;4.78;;
60867;SDS011;46702;48.370;10.794;2023-06-10T10:24:23;4.78;;;4.28;;
60867;SDS011;46702;48.370;10.794;2023-06-10T10:27:06;4.93;;;4.50;;
60867;SDS011;46702;48.370;10.794;2023-06-10T10:29:39;4.90;;;4.40;;
60867;SDS011;46702;48.370;10.794;2023-06-10T10:32:07;6.07;;;5.20;;
60867;SDS011;46702;48.370;10.794;2023-06-10T10:34:43;5.28;;;4.78;;
60867;SDS011;46702;48.370;10.794;2023-06-10T10:37:32;5.72;;;5.00;;
60867;SDS011;46702;48.370;10.794;2023-06-10T10:39:59;7.97;;;5.70;;
60867;SDS011;46702;48.370;10.794;2023-06-10T10:42:25;6.45;;;5.75;;
60867;SDS011;46702;48.370;10.794;2023-06-10T10:44:52;6.45;;;5.80;;
60867;SDS011;46702;48.370;10.794;2023-06-10T10:47:20;6.93;;;5.93;;
60867;SDS011;46702;48.370;10.794;2023-06-10T10:49:48;6.35;;;5.75;;
60867;SDS011;46702;48.370;10.794;2023-06-10T10:52:16;6.40;;;5.63;;
60867;SDS011;46702;48.370;10.794;2023-06-10T10:54:45;6.20;;;5.03;;
60867;SDS011;46702;48.370;10.794;2023-06-10T10:57:12;6.40;;;5.57;;
60867;SDS011;46702;48.370;10.794;2023-06-10T11:02:31;5.55;;;5.05;;
60867;SDS011;46702;48.370;10.794;2023-06-10T11:05:14;5.32;;;4.80;;
60867;SDS011;46702;48.370;10.794;2023-06-10T11:07:51;5.68;;;5.00;;
60867;SDS011;46702;48.370;10.794;2023-06-10T11:10:28;6.65;;;5.53;;
60867;SDS011;46702;48.370;10.794;2023-06-10T11:12:55;5.90;;;5.30;;
60867;SDS011;46702;48.370;10.794;2023-06-10T11:15:27;6.10;;;5.50;;
60867;SDS011;46702;48.370;10.794;2023-06-10T11:18:08;6.05;;;5.13;;
60867;SDS011;46702;48.370;10.794;2023-06-10T11:21:00;6.13;;;4.85;;
60867;SDS011;46702;48.370;10.794;2023-06-10T11:28:38;4.95;;;4.38;;
60867;SDS011;46702;48.370;10.794;2023-06-10T11:31:04;4.72;;;4.25;;
60867;SDS011;46702;48.370;10.794;2023-06-10T11:33:30;5.28;;;4.72;;
60867;SDS011;46702;48.370;10.794;2023-06-10T11:35:57;7.13;;;4.87;;
60867;SDS011;46702;48.370;10.794;2023-06-10T11:38:26;6.15;;;5.45;;
60867;SDS011;46702;48.370;10.794;2023-06-10T11:40:52;5.68;;;5.07;;
60867;SDS011;46702;48.370;10.794;2023-06-10T11:43:18;5.72;;;5.03;;
60867;SDS011;46702;48.370;10.794;2023-06-10T11:45:44;7.65;;;4.65;;
60867;SDS011;46702;48.370;10.794;2023-06-10T11:48:10;5.35;;;4.78;;
60867;SDS011;46702;48.370;10.794;2023-06-10T11:50:37;5.50;;;5.00;;
60867;SDS011;46702;48.370;10.794;2023-06-10T11:53:03;5.35;;;4.85;;
60867;SDS011;46702;48.370;10.794;2023-06-10T11:55:45;5.60;;;5.10;;
60867;SDS011;46702;48.370;10.794;2023-06-10T11:58:12;6.70;;;5.15;;
60867;SDS011;46702;48.370;10.794;2023-06-10T12:00:59;5.63;;;5.13;;
60867;SDS011;46702;48.370;10.794;2023-06-10T12:03:26;6.20;;;5.10;;
60867;SDS011;46702;48.370;10.794;2023-06-10T12:06:04;10.98;;;5.03;;
60867;SDS011;46702;48.370;10.794;2023-06-10T12:08:31;5.72;;;5.22;;
60867;SDS011;46702;48.370;10.794;2023-06-10T12:10:58;6.35;;;5.47;;
60867;SDS011;46702;48.370;10.794;2023-06-10T12:13:27;5.38;;;4.60;;
60867;SDS011;46702;48.370;10.794;2023-06-10T12:15:53;6.35;;;5.75;;
60867;SDS011;46702;48.370;10.794;2023-06-10T12:18:25;6.65;;;5.93;;
60867;SDS011;46702;48.370;10.794;2023-06-10T12:20:54;8.52;;;6.40;;
60867;SDS011;46702;48.370;10.794;2023-06-10T12:23:19;6.30;;;5.70;;
60867;SDS011;46702;48.370;10.794;2023-06-10T12:25:53;7.72;;;6.72;;
60867;SDS011;46702;48.370;10.794;2023-06-10T12:28:23;6.18;;;5.57;;
60867;SDS011;46702;48.370;10.794;2023-06-10T12:30:49;6.85;;;6.15;;
60867;SDS011;46702;48.370;10.794;2023-06-10T12:33:18;6.95;;;6.25;;
60867;SDS011;46702;48.370;10.794;2023-06-10T12:35:52;8.05;;;6.25;;
60867;SDS011;46702;48.370;10.794;2023-06-10T12:38:21;6.65;;;5.30;;
60867;SDS011;46702;48.370;10.794;2023-06-10T12:40:49;6.38;;;5.72;;
60867;SDS011;46702;48.370;10.794;2023-06-10T12:43:24;5.55;;;4.82;;
60867;SDS011;46702;48.370;10.794;2023-06-10T12:45:50;7.28;;;6.20;;
60867;SDS011;46702;48.370;10.794;2023-06-10T12:48:23;5.75;;;5.18;;
60867;SDS011;46702;48.370;10.794;2023-06-10T12:50:55;5.68;;;5.18;;
60867;SDS011;46702;48.370;10.794;2023-06-10T12:53:22;6.85;;;4.88;;
60867;SDS011;46702;48.370;10.794;2023-06-10T12:55:49;5.63;;;5.03;;
60867;SDS011;46702;48.370;10.794;2023-06-10T12:58:16;6.27;;;5.67;;
60867;SDS011;46702;48.370;10.794;2023-06-10T13:00:42;6.15;;;5.55;;
60867;SDS011;46702;48.370;10.794;2023-06-10T13:03:08;6.00;;;5.00;;
60867;SDS011;46702;48.370;10.794;2023-06-10T13:05:35;5.88;;;5.20;;
60867;SDS011;46702;48.370;10.794;2023-06-10T13:08:06;5.60;;;5.10;;
60867;SDS011;46702;48.370;10.794;2023-06-10T13:10:32;5.28;;;4.78;;
60867;SDS011;46702;48.370;10.794;2023-06-10T13:13:00;5.90;;;5.40;;
60867;SDS011;46702;48.370;10.794;2023-06-10T13:15:26;5.97;;;5.13;;
60867;SDS011;46702;48.370;10.794;2023-06-10T13:17:52;5.57;;;4.80;;
60867;SDS011;46702;48.370;10.794;2023-06-10T13:20:17;5.60;;;5.10;;
60867;SDS011;46702;48.370;10.794;2023-06-10T13:22:44;5.60;;;5.10;;
60867;SDS011;46702;48.370;10.794;2023-06-10T13:25:10;5.80;;;5.22;;
60867;SDS011;46702;48.370;10.794;2023-06-10T13:27:35;5.60;;;5.00;;
60867;SDS011;46702;48.370;10.794;2023-06-10T13:30:07;5.30;;;4.80;;
60867;SDS011;46702;48.370;10.794;2023-06-10T13:32:35;5.25;;;4.75;;
60867;SDS011;46702;48.370;10.794;2023-06-10T13:35:01;6.00;;;5.40;;
60867;SDS011;46702;48.370;10.794;2023-06-10T13:37:27;6.40;;;5.10;;
60867;SDS011;46702;48.370;10.794;2023-06-10T13:39:53;5.85;;;5.10;;
60867;SDS011;46702;48.370;10.794;2023-06-10T13:42:19;5.50;;;5.00;;
60867;SDS011;46702;48.370;10.794;2023-06-10T13:44:46;5.05;;;4.55;;
60867;SDS011;46702;48.370;10.794;2023-06-10T13:47:13;4.95;;;4.30;;
60867;SDS011;46702;48.370;10.794;2023-06-10T13:49:40;6.32;;;4.90;;
60867;SDS011;46702;48.370;10.794;2023-06-10T13:52:06;5.30;;;4.88;;
60867;SDS011;46702;48.370;10.794;2023-06-10T13:54:33;5.20;;;4.70;;
60867;SDS011;46702;48.370;10.794;2023-06-10T13:57:01;4.85;;;4.38;;
60867;SDS011;46702;48.370;10.794;2023-06-10T13:59:27;5.00;;;4.50;;
60867;SDS011;46702;48.370;10.794;2023-06-10T14:01:53;4.50;;;4.10;;
60867;SDS011;46702;48.370;10.794;2023-06-10T14:04:18;6.70;;;4.20;;
60867;SDS011;46702;48.370;10.794;2023-06-10T14:06:47;7.10;;;4.30;;
60867;SDS011;46702;48.370;10.794;2023-06-10T14:09:14;4.38;;;3.97;;
60867;SDS011;46702;48.370;10.794;2023-06-10T14:11:44;4.65;;;3.70;;
60867;SDS011;46702;48.370;10.794;2023-06-10T14:14:10;4.55;;;4.10;;
60867;SDS011;46702;48.370;10.794;2023-06-10T14:16:39;4.60;;;4.15;;
60867;SDS011;46702;48.370;10.794;2023-06-10T14:19:10;4.30;;;3.88;;
60867;SDS011;46702;48.370;10.794;2023-06-10T14:21:35;4.32;;;3.67;;
60867;SDS011;46702;48.370;10.794;2023-06-10T14:24:04;4.95;;;4.55;;
60867;SDS011;46702;48.370;10.794;2023-06-10T14:26:43;5.00;;;4.15;;
60867;SDS011;46702;48.370;10.794;2023-06-10T14:29:09;3.95;;;3.55;;
60867;SDS011;46702;48.370;10.794;2023-06-10T14:31:44;4.75;;;4.35;;
60867;SDS011;46702;48.370;10.794;2023-06-10T14:34:10;4.30;;;3.90;;
60867;SDS011;46702;48.370;10.794;2023-06-10T14:36:38;6.30;;;4.05;;
60867;SDS011;46702;48.370;10.794;2023-06-10T14:39:07;2.97;;;2.78;;
60867;SDS011;46702;48.370;10.794;2023-06-10T14:41:35;3.25;;;2.95;;
60867;SDS011;46702;48.370;10.794;2023-06-10T14:44:06;4.05;;;2.90;;
60867;SDS011;46702;48.370;10.794;2023-06-10T14:46:35;3.28;;;2.97;;
60867;SDS011;46702;48.370;10.794;2023-06-10T14:49:01;3.33;;;3.03;;
60867;SDS011;46702;48.370;10.794;2023-06-10T14:51:29;4.30;;;2.80;;